Meeker, CO

4:39 AM MDT on August 05, 2015 (GMT -0600)
Meeker | | Change Station
CLOSE
Current Station
Airport
Location: Meeker,
Elevation: 6421 ft
Nearby Weather Stations
Active Advisory: Fire Weather Warning

Elev 6421 ft 40.05 °N, 107.89 °W | Updated 46 minutes ago

Clear
Clear
52 °F
Feels Like 52 °F
N
5
Wind Variable Wind from ENE

Today
High -- | Low -- °F
--% Chance of Precip.
Yesterday
High -- | Low -- °F
Precip. -- in
6:13 AM 8:21 PM
Waning Gibbous, 68% visible
Pressure 29.98 in
Visibility 10.0 miles
Clouds Clear
Dew Point 39 °F
Humidity 61%
Rainfall 0.00 in
Snow Depth Not available.
UV 0 out of 12
Pollen 7.10 out of 12
Air Quality Not available.
Flu Activity Not available.
METAR KEEO 050953Z AUTO 06004KT 10SM CLR 11/04 A3024 RMK AO2 SLP151 T01110039

More Conditions Fewer Conditions

Pressure 29.98 in
Visibility 10.0 miles
Clouds Clear
Dew Point 39 °F
Humidity 61%
Rainfall 0.00 in
Snow Depth Not available.
UV 0 out of 12
Pollen 7.10 out of 12
Air Quality Not available.
Flu Activity Not available.
METAR KEEO 050953Z AUTO 06004KT 10SM CLR 11/04 A3024 RMK AO2 SLP151 T01110039

More Conditions Fewer Conditions

10-Day Weather Forecast

×

Almanac

Astronomy

Aug. 05, 2015 Rise Set
Actual Time
Civil Twilight
Nautical Twilight
Astronomical Twilight
Moon
Length of Visible Light
Length of Day
Tomorrow will be .
, % of the Moon is Illuminated

Today's Extremes

State Highs State Lows

Community

WunderPhotos

Upload Photos

1,844,115 photos uploaded!

WunderBlogs® & News

Nearby

Air Quality

  Air Quality AQ Index Pollutant
Not available.

Snow Depth

Station Depth Elevation

Earthquake Activity

City Distance Mag. Time & Date
Minimum magnitude displayed is 2.5.

Coastal Water Temperatures

Place Temperature

Stations

Nearby Weather Stations

Station Location Temp. Windchill Dew Point Humidity Wind Precip. Elev Updated Type
                   
Fire Weather Warning
Statement as of 4:30 AM MDT on August 05, 2015

... Red flag warning in effect from noon today to 8 PM MDT this
evening for gusty winds... low humidity... and dry fuels for fire
weather zones 200 and 202...

The National Weather Service in Grand Junction has issued a red
flag warning for gusty winds... low humidity... and dry fuels...
which is in effect from noon today to 8 PM MDT this evening.

* Affected area... in Colorado... fire weather zone 200 little
snake forecast area and fire weather zone 202 White River
forecast area.

* Wind... southwest 15 to 20 mph with gusts up to 35 mph.

* Humidity... 12 to 17 percent.

* Impacts... potential for rapid fire growth and spread upon
ignition.

Precautionary/preparedness actions...

A red flag warning means that critical fire weather conditions
are either occurring now... or will shortly. A combination of
strong winds... low relative humidity... and warm temperatures can
contribute to extreme fire behavior.

Please advise the appropriate officials and affected field
personnel of this red flag warning.